Time;durP1;ratioP1;P1;durP2;ratioP2;P2;SDS_P1;SDS_P2;PMS_P1;PMS_P2;Temp;Humidity;BMP_temperature;BMP_pressure;BME280_temperature;BME280_humidity;BME280_pressure;Samples;Min_cycle;Max_cycle;Signal;HPM_P1;HPM_P2
2021/04/23 00:02:46;;;;;;;21.60;10.57;;;;;;;12.82;65.90;101225.69;4995500;28;20038;-82
2021/04/23 00:05:31;;;;;;;14.80;9.90;;;;;;;12.68;66.01;101227.75;4970816;28;20046;-82
2021/04/23 00:08:18;;;;;;;16.15;11.00;;;;;;;12.59;66.35;101226.13;4968783;28;20499;-82
2021/04/23 00:11:05;;;;;;;24.13;9.52;;;;;;;12.54;66.13;101216.16;4980412;28;20034;-82
2021/04/23 00:13:50;;;;;;;15.25;10.95;;;;;;;12.52;66.04;101223.84;4984577;28;20105;-82
2021/04/23 00:16:36;;;;;;;13.43;8.70;;;;;;;12.53;66.12;101225.47;4982709;28;20038;-81
2021/04/23 00:19:23;;;;;;;14.88;10.45;;;;;;;12.43;66.38;101228.47;4961654;28;20050;-82
2021/04/23 00:22:08;;;;;;;14.75;9.82;;;;;;;12.41;66.34;101228.78;4977117;28;20034;-82
2021/04/23 00:24:53;;;;;;;11.00;8.38;;;;;;;12.32;66.45;101218.94;4963352;28;20050;-82
2021/04/23 00:27:41;;;;;;;15.38;8.77;;;;;;;12.31;66.50;101220.06;4966691;28;20034;-82
2021/04/23 00:30:30;;;;;;;16.38;10.05;;;;;;;12.29;66.68;101225.03;4985397;28;20042;-82
2021/04/23 00:33:17;;;;;;;20.83;11.48;;;;;;;12.24;66.47;101225.19;4982188;28;20046;-81
2021/04/23 00:36:04;;;;;;;19.58;10.45;;;;;;;12.25;66.68;101224.03;4994630;28;20506;-82
2021/04/23 00:38:49;;;;;;;20.13;12.50;;;;;;;12.22;66.80;101228.22;4983598;28;20046;-82
2021/04/23 00:41:35;;;;;;;13.93;8.68;;;;;;;12.20;67.01;101226.91;4982129;28;20038;-82
2021/04/23 00:44:20;;;;;;;18.67;10.68;;;;;;;12.22;66.82;101219.22;4994889;28;20042;-81
2021/04/23 00:47:05;;;;;;;11.52;8.32;;;;;;;12.17;66.78;101222.91;4984381;28;20038;-82
2021/04/23 00:49:51;;;;;;;16.77;11.02;;;;;;;12.19;66.34;101211.69;4982082;28;20042;-81
2021/04/23 00:52:36;;;;;;;19.35;11.15;;;;;;;12.17;66.46;101225.63;4994560;28;20498;-82
2021/04/23 00:55:21;;;;;;;;;;;;;;;12.12;66.76;101223.03;4999706;28;20070;-80
2021/04/23 00:58:14;;;;;;;17.23;11.10;;;;;;;12.06;66.38;101221.53;4982269;28;20290;-82
2021/04/23 01:01:11;;;;;;;15.93;10.95;;;;;;;12.03;66.93;101224.09;4979989;28;20026;-81
2021/04/23 01:03:57;;;;;;;16.75;10.88;;;;;;;12.04;66.72;101223.00;4983158;28;20046;-82
2021/04/23 01:06:42;;;;;;;14.55;10.77;;;;;;;12.04;66.54;101217.53;4995934;28;20042;-82
2021/04/23 01:09:30;;;;;;;16.77;11.32;;;;;;;12.11;66.03;101217.88;4993654;28;20054;-82
2021/04/23 01:12:14;;;;;;;20.98;11.70;;;;;;;11.98;66.05;101217.66;4980288;28;20038;-83
2021/04/23 01:14:59;;;;;;;15.95;9.90;;;;;;;11.98;66.41;101225.03;4981620;28;20511;-82
2021/04/23 01:17:44;;;;;;;10.90;7.43;;;;;;;11.96;66.16;101219.09;4979835;28;20046;-82
2021/04/23 01:20:29;;;;;;;;;;;;;;;11.84;66.50;101225.09;4983468;28;20042;-81
2021/04/23 01:23:14;;;;;;;19.45;11.40;;;;;;;11.82;66.55;101224.63;4981617;28;19917;-82
2021/04/23 01:26:00;;;;;;;15.35;9.60;;;;;;;11.81;65.96;101224.94;4979820;28;20042;-82
2021/04/23 01:28:49;;;;;;;20.95;11.57;;;;;;;11.73;66.67;101225.69;4983131;28;20050;-82
2021/04/23 01:31:38;;;;;;;18.90;11.70;;;;;;;11.70;66.65;101232.50;4976506;28;20047;-82
2021/04/23 01:34:33;;;;;;;19.40;11.48;;;;;;;11.68;66.49;101226.59;4974716;28;20043;-83
2021/04/23 01:37:18;;;;;;;14.45;8.95;;;;;;;11.83;66.26;101236.31;4977213;28;20042;-82
2021/04/23 01:40:10;;;;;;;23.65;11.75;;;;;;;11.83;66.36;101239.06;4980555;28;20418;-83
2021/04/23 01:42:55;;;;;;;20.98;12.48;;;;;;;11.79;66.48;101244.28;4992887;28;20414;-82
2021/04/23 01:45:40;;;;;;;;;;;;;;;11.91;66.54;101252.72;4998583;28;20046;-82
2021/04/23 01:48:26;;;;;;;19.05;13.27;;;;;;;12.04;65.92;101250.25;4995381;28;20512;-82
2021/04/23 01:51:14;;;;;;;20.17;13.00;;;;;;;12.10;65.52;101251.72;4968604;28;20043;-82
2021/04/23 01:53:59;;;;;;;18.27;12.55;;;;;;;12.16;65.40;101253.19;4970995;28;20047;-82
2021/04/23 01:56:44;;;;;;;;;;;;;;;12.24;64.88;101255.94;4969650;28;20411;-82
2021/04/23 01:59:30;;;;;;;13.50;9.43;;;;;;;12.38;64.41;101255.88;4970788;28;19914;-82
2021/04/23 02:02:17;;;;;;;22.98;11.80;;;;;;;12.42;64.16;101257.66;4974073;28;20042;-82
2021/04/23 02:05:03;;;;;;;18.00;12.68;;;;;;;12.49;63.81;101259.13;4975870;28;20051;-82
2021/04/23 02:07:48;;;;;;;19.33;12.10;;;;;;;12.40;63.86;101259.88;4973839;28;20046;-83
2021/04/23 02:10:40;;;;;;;19.88;9.32;;;;;;;12.45;63.99;101256.22;4962939;28;20046;-83
2021/04/23 02:13:27;;;;;;;20.05;12.68;;;;;;;12.54;63.58;101262.53;4974218;28;20038;-82
2021/04/23 02:16:15;;;;;;;18.35;12.95;;;;;;;12.59;63.54;101256.13;4972623;28;20043;-82
2021/04/23 02:19:00;;;;;;;18.00;12.07;;;;;;;12.57;63.59;101253.72;4976627;28;20039;-81
2021/04/23 02:21:46;;;;;;;13.57;9.98;;;;;;;12.61;63.72;101256.59;4975923;28;20038;-82
2021/04/23 02:24:30;;;;;;;18.05;12.63;;;;;;;12.57;64.55;101269.28;4977183;28;20049;-82
2021/04/23 02:27:15;;;;;;;21.17;13.32;;;;;;;12.63;63.78;101262.56;4980399;28;20046;-82
2021/04/23 02:30:00;;;;;;;14.82;10.63;;;;;;;12.66;64.10;101262.72;4978983;28;20042;-82
2021/04/23 02:32:45;;;;;;;17.73;10.25;;;;;;;12.72;64.12;101272.38;4977350;28;20047;-82
2021/04/23 02:35:33;;;;;;;19.92;13.73;;;;;;;12.82;64.02;101266.63;4979476;28;20042;-82
2021/04/23 02:38:19;;;;;;;18.92;13.10;;;;;;;12.91;64.00;101266.66;4979380;28;20409;-82
2021/04/23 02:41:05;;;;;;;19.38;13.57;;;;;;;12.86;64.46;101275.00;4977677;28;20035;-82
2021/04/23 02:43:55;;;;;;;17.63;12.50;;;;;;;13.03;64.45;101271.50;4980292;28;20046;-82
2021/04/23 02:46:42;;;;;;;19.42;13.07;;;;;;;12.98;64.65;101274.38;4978039;28;20038;-82
2021/04/23 02:49:27;;;;;;;17.05;12.55;;;;;;;13.07;64.48;101286.94;4976022;28;20047;-81
2021/04/23 02:52:12;;;;;;;18.17;10.77;;;;;;;13.01;64.79;101274.53;4990739;28;20047;-82
2021/04/23 02:54:57;;;;;;;20.52;12.77;;;;;;;12.94;65.03;101276.16;5002337;28;20426;-82
2021/04/23 02:57:54;;;;;;;19.92;14.02;;;;;;;12.96;65.49;101276.63;4983557;28;20062;-82
2021/04/23 03:00:53;;;;;;;20.83;13.70;;;;;;;12.79;66.26;101269.22;4985544;28;20030;-82
2021/04/23 03:03:39;;;;;;;23.48;15.00;;;;;;;12.94;66.08;101273.41;4983127;28;20575;-82
2021/04/23 03:06:24;;;;;;;20.88;12.82;;;;;;;12.89;66.26;101268.91;4980994;28;20038;-81
2021/04/23 03:09:09;;;;;;;;;;;;;;;12.95;66.30;101283.22;4985279;28;20050;-81
2021/04/23 03:11:54;;;;;;;21.27;13.55;;;;;;;12.91;66.43;101274.03;4982968;28;19918;-80
2021/04/23 03:14:39;;;;;;;22.00;14.02;;;;;;;12.86;66.78;101283.19;4995287;28;20038;-81
2021/04/23 03:17:25;;;;;;;20.90;9.70;;;;;;;12.86;66.65;101283.97;4988597;28;20042;-82
2021/04/23 03:20:16;;;;;;;19.48;13.65;;;;;;;12.71;67.47;101276.22;4983130;28;20048;-82
2021/04/23 03:23:01;;;;;;;17.33;12.88;;;;;;;12.65;67.89;101282.13;4980544;28;20039;-82
2021/04/23 03:25:46;;;;;;;12.85;10.02;;;;;;;12.74;67.47;101278.34;4984207;28;20038;-82
2021/04/23 03:28:31;;;;;;;16.33;10.25;;;;;;;12.82;67.56;101288.47;4982985;28;20043;-82
2021/04/23 03:31:17;;;;;;;18.77;12.23;;;;;;;12.91;67.08;101287.69;4995615;28;20042;-82
2021/04/23 03:34:04;;;;;;;20.80;12.18;;;;;;;12.97;66.79;101284.50;4984210;28;20050;-82
2021/04/23 03:36:50;;;;;;;16.90;10.93;;;;;;;12.94;66.83;101278.88;4997282;28;20042;-82
2021/04/23 03:39:34;;;;;;;14.30;10.23;;;;;;;13.06;66.57;101288.06;4995553;28;20038;-81
2021/04/23 03:42:19;;;;;;;16.02;8.85;;;;;;;12.97;66.64;101289.16;4982216;28;20042;-82
2021/04/23 03:45:08;;;;;;;17.00;9.70;;;;;;;13.03;66.03;101287.88;4983070;28;20046;-81
2021/04/23 03:47:54;;;;;;;15.98;10.45;;;;;;;13.02;66.11;101292.53;4981059;28;20054;-81
2021/04/23 03:50:40;;;;;;;19.52;10.93;;;;;;;13.12;65.75;101291.47;4999079;28;20043;-82
2021/04/23 03:53:25;;;;;;;16.10;10.32;;;;;;;13.13;65.73;101293.09;4982682;28;20046;-81
2021/04/23 03:56:12;;;;;;;18.02;11.63;;;;;;;13.09;65.75;101284.69;4980612;28;20415;-82
2021/04/23 03:58:57;;;;;;;17.75;11.35;;;;;;;13.11;65.63;101282.47;4999187;28;20042;-80
2021/04/23 04:01:42;;;;;;;17.27;9.88;;;;;;;13.08;65.70;101290.47;4982825;28;20042;-82
2021/04/23 04:04:27;;;;;;;22.98;10.98;;;;;;;13.02;66.00;101294.47;4995260;28;20430;-82
2021/04/23 04:07:12;;;;;;;12.32;8.57;;;;;;;12.93;66.04;101296.38;4984696;28;20554;-82
2021/04/23 04:09:57;;;;;;;19.27;11.30;;;;;;;12.77;66.95;101291.34;4997621;28;20046;-82
2021/04/23 04:12:42;;;;;;;18.27;9.93;;;;;;;12.73;67.26;101295.03;4980690;28;20050;-82
2021/04/23 04:15:27;;;;;;;;;;;;;;;12.84;66.81;101313.53;4999829;28;20042;-83
2021/04/23 04:18:12;;;;;;;16.35;11.30;;;;;;;12.98;66.19;101301.69;4982572;28;20124;-81
2021/04/23 04:20:59;;;;;;;19.08;11.27;;;;;;;12.96;66.46;101302.00;4980824;28;20042;-83
2021/04/23 04:23:44;;;;;;;19.50;10.57;;;;;;;13.03;65.98;101307.00;4989981;28;20407;-82
2021/04/23 04:26:29;;;;;;;14.10;8.60;;;;;;;12.97;66.07;101308.25;4983574;28;20050;-82
2021/04/23 04:29:15;;;;;;;17.60;10.52;;;;;;;13.00;65.87;101311.19;4980651;28;20502;-82
2021/04/23 04:32:00;;;;;;;16.08;10.45;;;;;;;12.98;66.32;101315.34;4981998;28;20039;-82
2021/04/23 04:34:45;;;;;;;12.27;7.47;;;;;;;12.96;65.93;101315.66;4995726;28;20509;-82
2021/04/23 04:37:30;;;;;;;18.30;10.82;;;;;;;13.07;66.08;101316.16;4976781;28;20411;-81
2021/04/23 04:40:16;;;;;;;14.20;7.25;;;;;;;13.16;65.46;101320.56;4984749;28;20407;-82
2021/04/23 04:43:02;;;;;;;15.77;10.63;;;;;;;13.11;65.46;101320.69;4979199;28;20053;-82
2021/04/23 04:45:48;;;;;;;18.42;10.50;;;;;;;13.20;65.56;101331.66;4994756;28;20042;-81
2021/04/23 04:48:34;;;;;;;16.67;10.80;;;;;;;13.18;65.65;101333.91;4984234;28;20046;-82
2021/04/23 04:51:20;;;;;;;17.27;11.10;;;;;;;13.22;65.54;101334.88;4985286;28;20042;-81
2021/04/23 04:54:05;;;;;;;24.75;11.70;;;;;;;13.33;65.06;101338.09;4981115;28;20054;-83
2021/04/23 04:56:50;;;;;;;29.05;12.90;;;;;;;13.37;64.73;101331.69;4979135;28;20035;-82
2021/04/23 04:59:35;;;;;;;19.52;11.82;;;;;;;13.49;64.64;101348.28;4982281;28;20046;-81
2021/04/23 05:02:20;;;;;;;14.80;9.02;;;;;;;13.47;64.04;101349.69;4995316;28;20035;-79
2021/04/23 05:05:06;;;;;;;9.75;7.32;;;;;;;13.54;64.16;101345.38;4993428;28;20046;-82
2021/04/23 05:07:52;;;;;;;16.98;10.57;;;;;;;13.64;63.01;101345.06;4997474;28;20045;-81
2021/04/23 05:10:38;;;;;;;18.77;11.80;;;;;;;13.49;63.35;101345.53;4980932;28;20046;-82
2021/04/23 05:13:24;;;;;;;15.82;11.02;;;;;;;13.56;62.93;101356.00;4978912;28;20038;-80
2021/04/23 05:16:09;;;;;;;12.68;9.50;;;;;;;13.50;62.84;101346.34;4997305;28;20038;-82
2021/04/23 05:18:54;;;;;;;19.27;10.25;;;;;;;13.36;63.35;101368.31;4980842;28;20038;-81
2021/04/23 05:21:39;;;;;;;14.43;8.93;;;;;;;13.17;62.95;101360.41;4978015;28;20510;-80
2021/04/23 05:24:24;;;;;;;16.70;11.00;;;;;;;13.25;63.37;101365.09;4982498;28;20537;-79
2021/04/23 05:27:09;;;;;;;13.57;7.65;;;;;;;13.32;62.86;101372.81;4978889;28;20046;-80
2021/04/23 05:29:54;;;;;;;12.70;8.45;;;;;;;13.49;62.66;101380.25;4978458;28;20038;-83
2021/04/23 05:32:41;;;;;;;10.65;8.00;;;;;;;13.65;61.21;101376.75;4979533;28;20041;-81
2021/04/23 05:35:28;;;;;;;20.45;10.43;;;;;;;13.61;61.82;101380.44;4994744;28;20050;-84
2021/04/23 05:38:12;;;;;;;18.52;10.07;;;;;;;13.82;61.35;101381.41;4985125;28;20494;-82
2021/04/23 05:40:57;;;;;;;18.50;10.18;;;;;;;13.83;61.41;101374.03;4987720;28;20042;-82
2021/04/23 05:43:45;;;;;;;;;;;;;;;13.88;60.58;101385.59;4985447;28;20062;-82
2021/04/23 05:46:31;;;;;;;12.85;8.07;;;;;;;14.14;59.91;101388.34;4981071;28;19912;-79
2021/04/23 05:49:16;;;;;;;16.20;8.77;;;;;;;14.19;60.21;101390.13;5002325;28;20511;-83
2021/04/23 05:52:04;;;;;;;18.33;9.77;;;;;;;14.45;59.69;101391.72;5013599;23;20042;-79
2021/04/23 05:54:49;;;;;;;18.80;9.55;;;;;;;14.58;59.05;101395.41;4984843;28;20054;-79
2021/04/23 05:57:34;;;;;;;16.33;8.85;;;;;;;14.62;58.54;101399.13;4974374;28;20038;-78
2021/04/23 06:00:19;;;;;;;;;;;;;;;14.62;58.39;101395.56;4977988;28;20522;-78
2021/04/23 06:03:06;;;;;;;15.55;11.68;;;;;;;15.11;56.99;101397.66;4974859;28;20306;-78
2021/04/23 06:05:51;;;;;;;11.32;9.07;;;;;;;15.36;55.80;101402.22;4992779;28;20411;-81
2021/04/23 06:08:36;;;;;;;11.85;8.55;;;;;;;15.23;54.78;101400.50;5000075;28;20062;-79
2021/04/23 06:11:23;;;;;;;10.50;6.45;;;;;;;15.43;54.68;101401.69;4991598;28;20054;-80
2021/04/23 06:14:08;;;;;;;13.52;8.40;;;;;;;15.66;54.12;101404.97;4978842;28;20046;-80
2021/04/23 06:16:53;;;;;;;10.70;6.60;;;;;;;15.78;53.52;101405.06;4981007;28;20123;-81
2021/04/23 06:19:38;;;;;;;14.95;9.05;;;;;;;15.73;53.18;101399.78;4979698;28;20058;-81
2021/04/23 06:22:23;;;;;;;10.90;7.35;;;;;;;15.73;53.87;101405.25;4977265;28;20419;-80
2021/04/23 06:25:12;;;;;;;14.57;8.00;;;;;;;15.88;53.02;101418.38;5008865;28;20050;-80
2021/04/23 06:27:57;;;;;;;16.00;9.63;;;;;;;15.94;54.08;101421.72;4980314;28;20407;-80
2021/04/23 06:30:43;;;;;;;20.77;11.38;;;;;;;16.33;52.96;101417.69;4978607;28;20054;-81
2021/04/23 06:33:40;;;;;;;28.35;12.82;;;;;;;16.68;52.53;101424.47;4996414;28;20538;-80
2021/04/23 06:36:25;;;;;;;45.63;12.77;;;;;;;17.10;50.64;101417.72;4978593;28;20039;-80
2021/04/23 06:39:18;;;;;;;23.70;11.02;;;;;;;17.13;50.42;101418.16;4977381;28;20047;-80
2021/04/23 06:42:04;;;;;;;16.13;10.20;;;;;;;17.30;50.24;101423.44;4980652;28;20030;-80
2021/04/23 06:44:49;;;;;;;19.65;10.95;;;;;;;17.18;50.16;101417.94;4978426;28;20055;-81
2021/04/23 06:47:34;;;;;;;;;;;;;;;17.40;49.92;101426.53;4977201;28;20050;-80
2021/04/23 06:50:21;;;;;;;17.42;9.93;;;;;;;17.50;49.22;101428.03;4981508;28;20382;-80
2021/04/23 06:53:08;;;;;;;18.25;8.48;;;;;;;17.44;48.94;101429.41;4984038;28;20034;-81
2021/04/23 06:55:53;;;;;;;14.55;9.02;;;;;;;17.05;49.51;101433.63;4996002;28;20049;-80
2021/04/23 06:58:38;;;;;;;12.95;8.45;;;;;;;17.82;48.37;101431.81;4999534;28;20047;-80
2021/04/23 07:01:23;;;;;;;9.57;6.18;;;;;;;17.60;48.46;101429.53;4998088;28;20030;-80
2021/04/23 07:04:08;;;;;;;18.65;8.45;;;;;;;17.72;48.50;101432.28;4983288;28;20065;-80
2021/04/23 07:06:53;;;;;;;;;;;;;;;17.82;48.13;101435.38;4980635;28;20047;-79
2021/04/23 07:09:38;;;;;;;22.45;9.93;;;;;;;17.39;49.31;101432.38;4981692;28;20310;-80
2021/04/23 07:12:23;;;;;;;11.40;7.00;;;;;;;17.75;48.49;101435.16;4981369;28;20038;-80
2021/04/23 07:15:09;;;;;;;;;;;;;;;18.44;46.27;101434.03;4985220;28;20166;-80
2021/04/23 07:17:55;;;;;;;17.23;9.40;;;;;;;18.50;46.68;101435.38;4982277;28;19914;-80
2021/04/23 07:20:40;;;;;;;17.70;8.73;;;;;;;18.84;44.97;101442.25;4980618;28;20038;-80
2021/04/23 07:23:26;;;;;;;15.65;9.82;;;;;;;19.37;44.22;101443.63;4982312;28;20050;-81
2021/04/23 07:26:11;;;;;;;;;;;;;;;19.89;44.16;101439.72;5007872;28;20042;-80
2021/04/23 07:28:55;;;;;;;21.27;12.35;;;;;;;21.27;40.42;101439.72;5001330;28;19914;-81
2021/04/23 07:31:40;;;;;;;;;;;;;;;21.18;40.22;101439.97;4999992;28;20498;-77
2021/04/23 07:34:25;;;;;;;16.35;12.10;;;;;;;21.88;38.89;101445.03;4992049;28;19918;-77
2021/04/23 07:37:10;;;;;;;21.88;12.40;;;;;;;22.80;36.91;101450.97;4977443;28;20531;-77
2021/04/23 07:39:55;;;;;;;22.13;11.50;;;;;;;22.22;37.73;101456.19;4981000;28;20062;-76
2021/04/23 07:42:40;;;;;;;22.95;11.77;;;;;;;22.24;37.87;101451.09;4977125;28;20046;-77
2021/04/23 07:45:27;;;;;;;24.45;12.80;;;;;;;23.16;36.32;101460.44;4979736;28;20042;-77
2021/04/23 07:48:12;;;;;;;28.80;12.93;;;;;;;23.03;35.99;101459.91;4974881;28;20587;-77
2021/04/23 07:50:57;;;;;;;;;;;;;;;23.80;34.57;101462.56;4979335;28;20039;-77
2021/04/23 07:53:41;;;;;;;20.17;11.63;;;;;;;24.29;33.42;101467.63;4977326;28;19914;-77
2021/04/23 07:56:26;;;;;;;16.83;11.25;;;;;;;24.95;32.41;101467.44;4975490;28;20282;-77
2021/04/23 07:59:11;;;;;;;;;;;;;;;23.52;34.38;101475.47;4987375;28;20034;-77
2021/04/23 08:01:56;;;;;;;20.65;11.70;;;;;;;25.53;30.79;101473.47;4996134;28;19914;-77
2021/04/23 08:04:41;;;;;;;;;;;;;;;26.55;28.23;101479.22;4994611;28;20035;-77
2021/04/23 08:07:25;;;;;;;19.38;12.07;;;;;;;25.42;31.26;101472.66;4997968;28;19913;-77
2021/04/23 08:10:15;;;;;;;19.65;11.85;;;;;;;26.37;29.22;101470.91;4984977;28;20500;-77
2021/04/23 08:13:01;;;;;;;27.80;10.98;;;;;;;26.16;29.46;101471.75;4975191;28;20039;-77
2021/04/23 08:15:47;;;;;;;18.60;10.82;;;;;;;25.13;31.20;101471.88;4979485;28;20043;-75
2021/04/23 08:18:38;;;;;;;18.35;11.15;;;;;;;26.94;29.07;101471.44;4976367;28;20042;-77
2021/04/23 08:21:23;;;;;;;21.10;10.45;;;;;;;27.31;28.50;101472.78;4992553;28;20418;-77
2021/04/23 08:24:09;;;;;;;23.25;10.48;;;;;;;27.26;27.47;101471.22;4997471;28;20042;-76
2021/04/23 08:26:54;;;;;;;15.93;10.18;;;;;;;28.36;25.74;101476.53;4996698;28;20046;-76
2021/04/23 08:29:39;;;;;;;17.63;9.30;;;;;;;26.78;28.31;101473.91;4992550;28;20042;-76
2021/04/23 08:32:24;;;;;;;29.35;9.75;;;;;;;26.86;27.34;101466.31;4977067;28;20407;-76
2021/04/23 08:35:10;;;;;;;19.90;8.82;;;;;;;26.93;27.08;101472.66;4976661;28;20051;-76
2021/04/23 08:37:55;;;;;;;12.40;7.78;;;;;;;27.35;25.47;101470.75;4975238;28;20415;-76
2021/04/23 08:40:40;;;;;;;13.02;8.10;;;;;;;25.99;27.85;101469.84;4986176;28;20426;-77
2021/04/23 08:43:26;;;;;;;15.63;9.10;;;;;;;25.53;29.19;101473.47;4993652;28;20049;-76
2021/04/23 08:46:11;;;;;;;19.60;10.10;;;;;;;25.98;28.82;101471.84;4994913;28;20046;-76
2021/04/23 08:48:57;;;;;;;15.48;10.30;;;;;;;26.42;28.07;101483.66;4991327;28;20046;-76
2021/04/23 08:51:43;;;;;;;20.00;11.85;;;;;;;28.38;25.13;101484.53;4977060;28;20415;-76
2021/04/23 08:54:28;;;;;;;14.73;10.07;;;;;;;30.32;22.39;101480.59;4975406;28;20055;-76
2021/04/23 08:57:13;;;;;;;12.27;9.32;;;;;;;29.65;23.10;101488.28;4977831;28;20034;-77
2021/04/23 08:59:58;;;;;;;19.38;10.43;;;;;;;27.23;25.73;101481.22;4989396;28;20418;-76
2021/04/23 09:02:44;;;;;;;13.43;9.77;;;;;;;27.88;25.03;101485.06;4993554;28;20034;-76
2021/04/23 09:05:29;;;;;;;16.88;11.63;;;;;;;27.34;26.33;101494.28;4997032;28;20038;-76
2021/04/23 09:08:14;;;;;;;15.25;10.95;;;;;;;27.73;25.66;101489.22;4996492;28;20050;-77
2021/04/23 09:11:14;;;;;;;21.58;12.52;;;;;;;28.55;24.97;101491.88;4991965;28;20058;-77
2021/04/23 09:14:08;;;;;;;21.30;13.57;;;;;;;29.09;24.85;101494.78;4979259;28;20038;-77
2021/04/23 09:16:59;;;;;;;17.38;11.95;;;;;;;28.08;26.41;101493.66;4995996;28;20509;-76
2021/04/23 09:19:44;;;;;;;15.13;12.30;;;;;;;28.83;24.71;101496.34;4992564;28;20034;-76
2021/04/23 09:22:31;;;;;;;16.58;13.23;;;;;;;29.98;23.62;101499.72;4995391;28;20043;-77
2021/04/23 09:25:16;;;;;;;22.15;13.32;;;;;;;30.35;22.71;101493.75;4995668;28;20514;-76
2021/04/23 09:28:00;;;;;;;20.30;13.32;;;;;;;29.35;24.01;101490.41;4993547;28;20046;-77
2021/04/23 09:30:46;;;;;;;14.85;11.73;;;;;;;29.71;23.30;101488.56;4987119;28;20419;-77
2021/04/23 09:33:31;;;;;;;15.70;10.95;;;;;;;29.73;22.71;101489.72;4975012;28;20042;-76
2021/04/23 09:36:32;;;;;;;29.80;11.57;;;;;;;30.06;22.36;101495.56;4974379;28;20047;-76
2021/04/23 09:39:22;;;;;;;16.25;11.82;;;;;;;32.42;19.96;101488.28;4977161;28;20495;-76
2021/04/23 09:42:09;;;;;;;18.38;11.55;;;;;;;31.47;20.51;101488.03;4974261;28;20403;-76
2021/04/23 09:44:57;;;;;;;15.73;11.27;;;;;;;31.48;20.54;101481.19;4980051;28;20038;-77
2021/04/23 09:47:42;;;;;;;17.50;12.27;;;;;;;29.42;23.28;101485.44;4994310;28;20034;-76
2021/04/23 09:50:36;;;;;;;22.38;11.57;;;;;;;29.11;22.76;101481.13;4992126;28;20053;-76
2021/04/23 09:53:31;;;;;;;19.35;10.80;;;;;;;31.09;20.46;101482.16;4976588;28;20042;-76
2021/04/23 09:56:32;;;;;;;16.00;11.52;;;;;;;29.35;22.39;101477.19;4995571;28;20050;-76
2021/04/23 09:59:17;;;;;;;19.38;11.40;;;;;;;31.45;20.14;101468.78;4992743;28;20039;-76
2021/04/23 10:02:04;;;;;;;16.75;11.00;;;;;;;30.07;22.11;101467.06;4994099;28;20038;-77
2021/04/23 10:04:49;;;;;;;15.52;11.13;;;;;;;30.27;21.65;101467.09;4993619;28;20426;-76
2021/04/23 10:07:36;;;;;;;15.52;11.40;;;;;;;28.61;23.45;101467.81;4979108;28;20050;-77
2021/04/23 10:10:22;;;;;;;15.95;10.75;;;;;;;30.51;21.82;101457.38;4993385;28;20038;-77
2021/04/23 10:13:09;;;;;;;15.75;10.98;;;;;;;33.06;18.94;101467.41;4990037;28;20038;-76
2021/04/23 10:15:54;;;;;;;15.77;9.50;;;;;;;32.65;19.34;101465.50;4976713;28;20042;-77
2021/04/23 10:18:39;;;;;;;12.25;9.55;;;;;;;31.59;20.11;101470.50;4995813;28;20053;-76
2021/04/23 10:21:24;;;;;;;12.63;9.30;;;;;;;32.35;19.03;101468.00;4994315;28;20510;-76
2021/04/23 10:24:09;;;;;;;14.38;9.60;;;;;;;31.81;19.22;101468.66;4992854;28;20053;-76
2021/04/23 10:26:55;;;;;;;13.32;8.98;;;;;;;31.14;20.34;101461.97;4995992;28;20045;-76
2021/04/23 10:29:43;;;;;;;14.90;10.32;;;;;;;29.79;21.97;101463.97;4994971;28;20057;-77
2021/04/23 10:32:28;;;;;;;16.38;9.88;;;;;;;32.84;18.29;101463.69;4991902;28;20034;-76
2021/04/23 10:35:14;;;;;;;16.58;8.60;;;;;;;37.46;13.59;101474.63;4997049;28;20058;-76
2021/04/23 10:38:06;;;;;;;12.30;8.82;;;;;;;35.88;14.64;101470.38;4995107;28;20522;-76
2021/04/23 10:41:00;;;;;;;11.85;8.93;;;;;;;37.08;13.58;101470.44;4992798;28;20046;-76
2021/04/23 10:43:57;;;;;;;15.10;9.05;;;;;;;38.75;12.57;101481.50;4984303;28;20039;-76
2021/04/23 10:46:50;;;;;;;12.02;8.05;;;;;;;35.96;14.53;101466.75;4977332;28;20518;-77
2021/04/23 10:50:14;;;;;;;13.18;8.02;;;;;;;35.46;14.60;101473.00;4981435;28;20039;-76
2021/04/23 10:53:10;;;;;;;12.85;8.98;;;;;;;36.32;13.78;101463.09;4979400;28;20046;-76
2021/04/23 10:56:01;;;;;;;8.13;7.28;;;;;;;30.44;20.24;101451.88;5001145;28;20046;-77
2021/04/23 10:58:47;;;;;;;8.98;7.30;;;;;;;25.03;27.88;101439.25;4997758;28;20057;-75
2021/04/23 11:01:34;;;;;;;19.73;8.15;;;;;;;25.36;27.80;101432.47;4995919;28;20049;-76
2021/04/23 11:04:20;;;;;;;13.80;7.35;;;;;;;26.66;25.64;101438.13;4987019;28;20038;-80
2021/04/23 11:07:05;;;;;;;13.60;7.40;;;;;;;32.63;18.53;101447.41;4983640;28;20049;-78
2021/04/23 11:10:01;;;;;;;12.10;7.85;;;;;;;33.02;17.73;101444.16;4980872;28;20042;-79
2021/04/23 11:13:24;;;;;;;12.15;8.98;;;;;;;25.02;27.01;101434.06;4981251;28;20035;-79
2021/04/23 11:16:18;;;;;;;12.88;8.43;;;;;;;23.82;30.63;101432.41;4993686;28;20134;-78
2021/04/23 11:19:31;;;;;;;10.98;8.25;;;;;;;27.28;24.74;101428.94;4998514;28;20045;-78
2021/04/23 11:22:18;;;;;;;10.52;8.07;;;;;;;26.02;26.75;101432.78;4997452;28;20049;-79
2021/04/23 11:25:03;;;;;;;12.23;7.68;;;;;;;31.94;19.09;101434.97;4985268;28;20046;-78
2021/04/23 11:28:05;;;;;;;11.27;7.97;;;;;;;34.70;15.82;101429.25;4983435;28;20051;-79
2021/04/23 11:30:54;;;;;;;12.35;7.10;;;;;;;35.59;15.06;101423.50;4981188;28;20058;-79
2021/04/23 11:33:48;;;;;;;9.90;7.25;;;;;;;32.25;17.87;101422.78;4984338;28;20039;-80
2021/04/23 11:36:36;;;;;;;8.30;7.18;;;;;;;27.72;22.78;101403.78;4989603;28;20057;-79
2021/04/23 11:39:29;;;;;;;9.68;7.38;;;;;;;30.24;20.34;101411.00;4997932;28;20053;-79
2021/04/23 11:42:18;;;;;;;11.68;7.03;;;;;;;27.11;23.84;101408.31;5000771;28;20049;-79
2021/04/23 11:45:04;;;;;;;9.80;6.72;;;;;;;24.76;27.95;101403.78;4994523;28;20038;-78
2021/04/23 11:47:52;;;;;;;12.73;6.78;;;;;;;23.67;29.16;101394.59;4982121;28;20068;-78
2021/04/23 11:50:43;;;;;;;11.18;7.32;;;;;;;31.51;18.69;101404.38;5000876;28;20521;-78
2021/04/23 11:53:27;;;;;;;14.23;7.05;;;;;;;34.86;14.97;101411.25;5009977;23;20047;-80
2021/04/23 11:56:12;;;;;;;8.13;5.65;;;;;;;32.32;17.37;101413.34;4946216;28;20048;-82
2021/04/23 11:59:05;;;;;;;7.57;6.13;;;;;;;31.40;17.69;101418.72;4939345;29;20427;-82
2021/04/23 12:01:50;;;;;;;10.48;5.70;;;;;;;31.51;17.39;101407.19;4929387;29;20055;-81
2021/04/23 12:04:40;;;;;;;13.57;6.72;;;;;;;26.77;23.71;101405.34;4938064;29;20043;-79
2021/04/23 12:07:24;;;;;;;9.02;6.82;;;;;;;29.61;20.98;101403.41;4961102;28;20440;-81
2021/04/23 12:10:10;;;;;;;10.45;6.47;;;;;;;32.25;17.90;101402.31;4947202;28;20061;-81
2021/04/23 12:12:55;;;;;;;11.18;6.25;;;;;;;34.38;15.35;101401.47;4945032;28;20427;-81
2021/04/23 12:15:41;;;;;;;8.65;6.15;;;;;;;32.28;17.49;101401.41;4943723;29;20054;-82
2021/04/23 12:18:28;;;;;;;7.32;4.90;;;;;;;32.54;16.86;101405.03;4946973;28;20050;-82
2021/04/23 12:21:14;;;;;;;8.35;6.00;;;;;;;32.80;16.44;101397.41;4945396;29;20062;-80
2021/04/23 12:23:59;;;;;;;7.72;5.93;;;;;;;32.65;16.56;101406.34;4944882;29;20050;-81
2021/04/23 12:26:47;;;;;;;10.50;6.45;;;;;;;32.79;16.53;101407.91;4941872;29;20050;-81
2021/04/23 12:29:32;;;;;;;8.90;5.30;;;;;;;28.21;20.69;101391.22;4933926;29;20043;-79
2021/04/23 12:32:17;;;;;;;8.15;6.80;;;;;;;26.25;24.41;101391.31;4943030;29;20551;-80
2021/04/23 12:35:03;;;;;;;9.25;6.07;;;;;;;26.14;25.06;101396.09;4941499;29;20515;-82
2021/04/23 12:37:48;;;;;;;9.23;5.85;;;;;;;33.09;16.85;101401.66;4947789;28;20054;-81
2021/04/23 12:40:44;;;;;;;11.48;5.88;;;;;;;31.29;18.37;101385.25;4943043;29;20054;-82
2021/04/23 12:43:39;;;;;;;8.93;6.50;;;;;;;33.70;15.99;101379.84;4945748;28;20042;-80
2021/04/23 12:46:29;;;;;;;;;;;;;;;33.66;15.87;101394.06;4947983;28;20054;-79
2021/04/23 12:49:25;;;;;;;8.30;5.15;;;;;;;34.86;14.63;101385.03;4957202;28;19914;-79
2021/04/23 12:52:19;;;;;;;5.70;4.55;;;;;;;34.48;15.03;101379.69;4938844;28;20116;-76